Terminal Aerodrome Forecast
Issued by NWS Caribou, ME

Home | Current Version | Previous Version | Text Only | Print | Product List | Glossary On
Versions: 1 2 3 4 5 6 7 8 9 10 11 12 13 14
426
FTUS41 KCAR 250548
TAFCAR
TAF
KCAR 250548Z 2506/2606 17006KT P6SM BKN020
     FM250800 18007KT 6SM -DZ BKN008
     FM251200 18008KT P6SM BKN005
     FM251400 18009KT P6SM BKN250
     FM252000 20008KT 3SM -SHRA BKN070
     FM252300 18006KT P6SM BKN050
     FM260200 27006KT P6SM BKN015=

USA.gov is the U.S. government's official web portal to all federal, state and local government web resources and services.